WetterOnline ( https://www.wetteronline.de )

Wetter aktuell Hornburg

Aktuelles Wetter: Wernigerode (240m)

6-stündlich | Neueste Meldungen
Ortszeit Temperatur Wetter
Sa, 24.10. 2:00 11.9° C wolkig
Fr, 23.10. 20:00 11.7° C bedeckt
Fr, 23.10. 14:00 14.9° C Sprühregen
Fr, 23.10. 8:00 12.8° C bewölkt
Fr, 23.10. 2:00 13.1° C wolkig
Do, 22.10. 20:00 15.6° C bedeckt
Do, 22.10. 14:00 19.1° C bewölkt
Do, 22.10. 8:00 15.7° C bedeckt
Ortszeit Temperatur Wetter
Sa, 24.10. 6:00 10.6° C wolkig
Sa, 24.10. 5:50 10.6° C wolkig
Sa, 24.10. 5:40 11.4° C wolkig
Sa, 24.10. 5:30 12.2° C leicht bewölkt
Sa, 24.10. 5:20 12.2° C leicht bewölkt
Sa, 24.10. 5:10 11.6° C wolkenlos
Sa, 24.10. 5:00 12.2° C wolkenlos
Sa, 24.10. 4:30 12.8° C wolkenlos
Sa, 24.10. 4:00 12.6° C fast wolkenlos
Sa, 24.10. 3:30 12.9° C bewölkt
Sa, 24.10. 3:00 13.1° C bewölkt
Ortszeit Relative Feuchte Sichtweite
Sa, 24.10. 2:00 89% 55 km
Fr, 23.10. 20:00 92% 55 km
Fr, 23.10. 14:00 89% 13 km
Fr, 23.10. 8:00 94% 30 km
Fr, 23.10. 2:00 89% 50 km
Do, 22.10. 20:00 74% 55 km
Do, 22.10. 14:00 58% 50 km
Do, 22.10. 8:00 72% 35 km
Ortszeit Relative Feuchte Sichtweite
Sa, 24.10. 6:00 86% 40 km
Sa, 24.10. 5:50 86% -
Sa, 24.10. 5:40 82% -
Sa, 24.10. 5:30 79% 55 km
Sa, 24.10. 5:20 79% -
Sa, 24.10. 5:10 82% -
Sa, 24.10. 5:00 80% 60 km
Sa, 24.10. 4:30 76% 55 km
Sa, 24.10. 4:00 79% 55 km
Sa, 24.10. 3:30 80% 40 km
Sa, 24.10. 3:00 80% 40 km
Ortszeit Niederschlagsmenge Niederschlagsart
Sa, 24.10. 2:00 0.1 l/m2 in 6 Std. Regen
Fr, 23.10. 20:00 5 l/m2 in 12 Std. Regen
Fr, 23.10. 14:00 1 l/m2 in 6 Std. Regen
Fr, 23.10. 8:00 1 l/m2 in 12 Std. Regen
Fr, 23.10. 2:00 1 l/m2 in 6 Std. Regen
Do, 22.10. 20:00 0.1 l/m2 in 12 Std. -
Do, 22.10. 14:00 0.1 l/m2 in 6 Std. Sprühregen
Do, 22.10. 8:00 0.0 l/m2 in 12 Std. -
Ortszeit Niederschlagsmenge Niederschlagsart
Sa, 24.10. 6:00 0.0 l/m2 in 1 Std. -
Sa, 24.10. 5:50 keine Meldung -
Sa, 24.10. 5:40 keine Meldung -
Sa, 24.10. 5:30 0.0 l/m2 in 1 Std. -
Sa, 24.10. 5:20 keine Meldung -
Sa, 24.10. 5:10 keine Meldung -
Sa, 24.10. 5:00 0.0 l/m2 in 1 Std. -
Sa, 24.10. 4:30 0.0 l/m2 in 1 Std. -
Sa, 24.10. 4:00 0.0 l/m2 in 1 Std. -
Sa, 24.10. 3:30 0.0 l/m2 in 1 Std. -
Sa, 24.10. 3:00 0.0 l/m2 in 1 Std. -
Ortszeit Stärke Spitze Richtung
km/h Bft. km/h Grad Sektor
Sa, 24.10. 2:00 11 2 22 240° SW
Fr, 23.10. 20:00 4 1 32 170° S
Fr, 23.10. 14:00 7 2 19 210° SW
Fr, 23.10. 8:00 4 1 14 100° O
Fr, 23.10. 2:00 7 2 32 180° S
Do, 22.10. 20:00 13 3 30 180° S
Do, 22.10. 14:00 14 3 32 220° SW
Do, 22.10. 8:00 13 3 50 210° SW
Ortszeit Stärke Spitze Richtung
km/h Bft. km/h Grad Sektor
Sa, 24.10. 6:00 4 1 18 260° W
Sa, 24.10. 5:50 4 1 - 260° W
Sa, 24.10. 5:40 7 2 - 230° SW
Sa, 24.10. 5:30 7 2 18 220° SW
Sa, 24.10. 5:20 7 2 - 220° SW
Sa, 24.10. 5:10 7 2 - 200° S
Sa, 24.10. 5:00 7 2 32 250° W
Sa, 24.10. 4:30 13 3 26 240° SW
Sa, 24.10. 4:00 13 3 33 240° SW
Sa, 24.10. 3:30 15 3 33 260° W
Sa, 24.10. 3:00 14 3 40 260° W
Ortszeit Untergrenze Bedeckung Gattung
total tief tief mittel hoch
Sa, 24.10. 2:00 2100 m 5/8 4/8 - - -
Fr, 23.10. 20:00 2100 m 8/8 8/8 - - -
Fr, 23.10. 14:00 870 m 8/8 8/8 - - -
Fr, 23.10. 8:00 1350 m 8/8 5/8 - - -
Fr, 23.10. 2:00 900 m 7/8 5/8 - - -
Do, 22.10. 20:00 6600 m 8/8 8/8 - - -
Do, 22.10. 14:00 1800 m 7/8 7/8 - - -
Do, 22.10. 8:00 5100 m 8/8 8/8 - - -
Ortszeit Bedeckungsgrad in Achtel und Wolkenuntergrenze
Sa, 24.10. 6:00 1(930m) 3(1110m) 6(2100m)
Sa, 24.10. 5:50 1(930m) 3(1110m) 6(2100m)
Sa, 24.10. 5:40 1(1230m) 6(2100m)
Sa, 24.10. 5:30 4(2100m)
Sa, 24.10. 5:20 4(2100m)
Sa, 24.10. 5:10 keine Wolken
Sa, 24.10. 5:00 keine Wolken
Sa, 24.10. 4:30 keine Wolken
Sa, 24.10. 4:00 1(8100m)
Sa, 24.10. 3:30 4(4800m) 8(7500m) 8(8400m)
Sa, 24.10. 3:00 4(2100m) 8(7500m) 8(8400m)
Ortszeit Luftdruck NN (hPa) Tendenz (hPa in 3 Std.)
Sa, 24.10. 2:00 1012 + 0,5
Fr, 23.10. 20:00 1011 + 0,2
Fr, 23.10. 14:00 1011 - 1,2
Fr, 23.10. 8:00 1012 - 0,6
Fr, 23.10. 2:00 1013 - 0,3
Do, 22.10. 20:00 1012 - 0,2
Do, 22.10. 14:00 1013 0,0
Do, 22.10. 8:00 1011 + 1,2
Ortszeit Luftdruck NN (hPa) Tendenz (hPa in 3 Std.)
Sa, 24.10. 6:00 1013 + 0,5
Sa, 24.10. 5:50 1013 keine Meldung
Sa, 24.10. 5:40 1013 keine Meldung
Sa, 24.10. 5:30 1012 0,0
Sa, 24.10. 5:20 1012 keine Meldung
Sa, 24.10. 5:10 1012 keine Meldung
Sa, 24.10. 5:00 1012 + 0,2
Sa, 24.10. 4:30 1012 + 0,2
Sa, 24.10. 4:00 1012 + 0,2
Sa, 24.10. 3:30 1012 + 0,6
Sa, 24.10. 3:00 1012 + 0,3
Ortszeit Schneehöhe (cm)
Sa, 24.10. 2:00 0
Fr, 23.10. 20:00 0
Fr, 23.10. 14:00 0
Fr, 23.10. 8:00 0
Fr, 23.10. 2:00 0
Do, 22.10. 20:00 0
Do, 22.10. 14:00 0
Do, 22.10. 8:00 0
Ortszeit Schneehöhe (cm)
Sa, 24.10. 6:00 0
Sa, 24.10. 5:50 0
Sa, 24.10. 5:40 0
Sa, 24.10. 5:30 0
Sa, 24.10. 5:20 0
Sa, 24.10. 5:10 0
Sa, 24.10. 5:00 0
Sa, 24.10. 4:30 0
Sa, 24.10. 4:00 0
Sa, 24.10. 3:30 0
Sa, 24.10. 3:00 0
Link zu dieser Seite / Seite empfehlen

Das Wetter in ...